• Join FlightAware (Why Join?)
  • Login
  • US Flag 
01:39AM EDT


 

Airport Tracker/Info


-or-


 

Live Flight TrackerFlight Track Log ✈ DAL695 ✈ 04-Jun-2013 ✈ KMCO - KJFK

Flight Track Log - Related Links

Times and Time Zones

All times are in EDT time to prevent confusion due to time zone crossing. See the DAL695 flight status page for this flight to view local times or setup timezone preferences in your user account.

Time Position Orientation Groundspeed Altitude Reporting Facility
EDT Latitude Longitude Course Direction KTS MPH feet Rate Location/Type
02:49PM 28.4000 -81.3000 90° East 159 183 900  Level Orlando TRACON
02:50PM 28.3500 -81.2667 150° Southeast 229 264 2,800 2,100 Climbing Orlando TRACON
02:51PM 28.3500 -81.1833 90° East 261 300 5,400 2,580 Climbing Orlando TRACON
02:52PM 28.2031 -80.8493 114° Southeast  Level FlightAware Approximate
02:53PM 28.1557 -80.7310 114° Southeast  Level FlightAware Approximate
02:53PM 28.3547 -81.0369 88° East 307 353 10,100  Level Miami Center
02:54PM 28.1000 -80.6314 90° East  Level FlightAware Approximate
02:54PM 28.3658 -80.9381 83° East 307 353 11,600  Level Miami Center
02:55PM 28.3750 -80.8300 84° East 337 388 14,500 2,400 Climbing Miami Center
02:56PM 28.3842 -80.7311 84° East 342 394 16,400 1,920 Climbing Miami Center
02:57PM 28.3956 -80.6183 83° East 354 407 18,400 1,860 Climbing Miami Center
02:58PM 28.4089 -80.5056 82° East 354 407 20,200 1,200 Climbing Miami Center
02:59PM 28.4228 -80.3644 84° East 389 448 20,900 840 Climbing Miami Center
03:00PM 28.4383 -80.2303 82° East 420 483 21,900 900 Climbing Miami Center
03:01PM 28.4542 -80.0914 83° East 440 506 22,700 1,260 Climbing Miami Center
03:02PM 28.5150 -79.9822 58° Northeast 445 512 24,500 1,800 Climbing Miami Center
03:03PM 28.5883 -79.8683 54° Northeast 445 512 26,400 1,620 Climbing Miami Center
03:04PM 28.6617 -79.7569 53° Northeast 439 505 27,800 1,200 Climbing Miami Center
03:05PM 28.7328 -79.6475 53° Northeast 439 505 28,800 960 Climbing Miami Center
03:06PM 28.8039 -79.5308 55° Northeast 439 505 29,800 840 Climbing Miami Center
03:07PM 28.8808 -79.4189 52° Northeast 444 511 30,500 660 Climbing Miami Center
03:08PM 28.9967 -79.3669 21° North 427 491 31,200 660 Climbing Miami Center
03:09PM 29.1181 -79.3389 11° North 427 491 31,900 660 Climbing Miami Center
03:10PM 29.2417 -79.3036 14° North 437 503 32,600 780 Climbing Miami Center
03:11PM 29.3717 -79.2778 10° North 445 512 33,500 900 Climbing Miami Center
03:12PM 29.4931 -79.2447 13° North 452 520 34,400 900 Climbing Miami Center
03:13PM 29.6167 -79.2094 14° North 452 520 35,400 900 Climbing Miami Center
03:14PM 29.7361 -79.1761 14° North 447 514 36,200 600 Climbing Miami Center
03:15PM 29.8594 -79.1500 10° North 447 514 36,700 240 Climbing Miami Center
03:16PM 30.0781 -79.0858 14° North 455 524 37,000 60 Climbing Jacksonville Center
03:17PM 30.2089 -79.0567 11° North 461 531 36,900  Descending Jacksonville Center
03:18PM 30.3411 -79.0178 14° North 460 529 37,000  Climbing Jacksonville Center
03:19PM 30.4717 -78.9786 14° North 471 542 37,000  Level Jacksonville Center
03:20PM 30.5956 -78.9350 17° North 460 529 37,000  Level Jacksonville Center
03:21PM 30.7192 -78.8886 18° North 467 537 37,000  Level Jacksonville Center
03:22PM 30.8450 -78.8422 18° North 467 537 37,000  Level Jacksonville Center
03:23PM 30.9753 -78.7981 16° North 467 537 37,000 -60 Level Jacksonville Center
03:24PM 31.0989 -78.7539 17° North 467 537 36,900  Descending Jacksonville Center
03:25PM 31.2269 -78.7092 17° North 474 545 37,000  Climbing Jacksonville Center
03:26PM 31.3528 -78.6622 18° North 469 540 37,000 -60 Level Jacksonville Center
03:27PM 31.4764 -78.6178 17° North 469 540 36,900 -60 Descending Jacksonville Center
03:28PM 31.6044 -78.5728 17° North 469 540 36,900  Level Jacksonville Center
03:29PM 31.7261 -78.5281 17° North 469 540 36,900  Level Jacksonville Center
03:30PM 31.8517 -78.4806 18° North 469 540 37,000  Climbing Jacksonville Center
03:31PM 31.9794 -78.4353 17° North 475 547 37,000  Level Jacksonville Center
03:32PM 32.1031 -78.3875 18° North 469 540 37,000  Level Jacksonville Center
03:33PM 32.2308 -78.3419 17° North 469 540 37,000 -60 Level Jacksonville Center
03:34PM 32.3564 -78.2914 19° North 475 547 36,900 -60 Descending Jacksonville Center
03:35PM 32.4839 -78.2406 19° North 475 547 36,900  Level Jacksonville Center
03:36PM 32.6094 -78.1922 18° North 475 547 36,900  Level Jacksonville Center
03:37PM 32.7353 -78.1489 16° North 475 547 37,000  Climbing Jacksonville Center
03:38PM 32.8608 -78.1025 17° North 470 541 36,900 -60 Descending Jacksonville Center
03:39PM 32.9861 -78.0539 18° North 470 541 36,900  Level Jacksonville Center
03:42PM 33.2325 -77.9622 17° North 480 552 37,000  Climbing Washington Center
03:43PM 33.3586 -77.9161 17° North 480 552 36,900  Descending Washington Center
03:44PM 33.4847 -77.8697 17° North 480 552 37,000  Climbing Washington Center
03:45PM 33.6108 -77.8208 18° North 475 547 37,000 -60 Level Washington Center
03:46PM 33.7328 -77.7717 19° North 469 540 36,900 -60 Descending Washington Center
03:47PM 33.8586 -77.7225 18° North 469 540 36,900  Level Washington Center
03:48PM 33.9867 -77.6758 17° North 469 540 36,900  Level Washington Center
03:49PM 34.1169 -77.6264 17° North 475 547 37,000  Climbing Washington Center
03:50PM 34.2408 -77.5792 17° North 475 547 37,000  Level Washington Center
03:51PM 34.3711 -77.5319 17° North 475 547 37,000  Level Washington Center
03:52PM 34.4969 -77.4819 18° North 475 547 37,000  Level Washington Center
03:53PM 34.6231 -77.4269 20° North 480 552 37,000  Level Washington Center
03:54PM 34.7472 -77.3589 24° Northeast 480 552 37,000  Level Washington Center
03:55PM 34.8714 -77.2881 25° Northeast 480 552 37,000  Level Washington Center
03:56PM 34.9911 -77.2222 24° Northeast 480 552 37,000  Level Washington Center
03:57PM 35.1108 -77.1536 25° Northeast 480 552 37,000  Level Washington Center
03:58PM 35.2369 -77.0872 23° Northeast 480 552 37,000  Level Washington Center
03:59PM 35.3547 -77.0208 25° Northeast 475 547 37,000  Level Washington Center
04:00PM 35.4764 -76.9542 24° Northeast 475 547 37,000  Level Washington Center
04:01PM 35.5939 -76.8897 24° Northeast 470 541 37,000 -60 Level Washington Center
04:02PM 35.7242 -76.8150 25° Northeast 459 528 36,900  Descending Washington Center
04:03PM 35.8417 -76.7503 24° Northeast 459 528 37,000  Climbing Washington Center
04:04PM 35.9611 -76.6828 25° Northeast 459 528 36,900  Descending Washington Center
04:05PM 36.0786 -76.6175 24° Northeast 459 528 37,000  Climbing Washington Center
04:06PM 36.1981 -76.5519 24° Northeast 459 528 36,900  Descending Washington Center
04:07PM 36.3133 -76.4942 22° Northeast 459 528 37,000  Climbing Washington Center
04:08PM 36.4383 -76.5033 357° North 438 504 37,000 -60 Level Washington Center
04:09PM 36.5614 -76.5256 352° North 438 504 36,900  Descending Washington Center
04:10PM 36.6844 -76.5347 357° North 443 510 37,000  Climbing Washington Center
04:11PM 36.7933 -76.4608 29° Northeast 426 490 37,000  Level Washington Center
04:12PM 36.8878 -76.3814 34° Northeast 433 498 37,000  Level Washington Center
04:13PM 36.9928 -76.2992 32° Northeast 441 507 37,000  Level Washington Center
04:14PM 37.0994 -76.2142 32° Northeast 447 514 37,000 -60 Level Washington Center
04:15PM 37.2000 -76.1447 29° Northeast 447 514 36,900  Descending Washington Center
04:16PM 37.3172 -76.0542 32° Northeast 447 514 37,000  Climbing Washington Center
04:17PM 37.4239 -75.9711 32° Northeast 447 514 36,900  Descending Washington Center
04:18PM 37.5306 -75.8878 32° Northeast 447 514 37,000  Climbing Washington Center
04:19PM 37.6392 -75.8069 31° Northeast 452 520 37,000  Level Washington Center
04:20PM 37.7456 -75.7153 34° Northeast 452 520 37,000 -60 Level Washington Center
04:21PM 37.8500 -75.6364 31° Northeast 452 520 36,900 -60 Descending Washington Center
04:22PM 37.9583 -75.5469 33° Northeast 452 520 36,900  Level Washington Center
04:23PM 38.0667 -75.4653 31° Northeast 452 520 37,000  Climbing Washington Center
04:24PM 38.1772 -75.3883 29° Northeast 447 514 37,000 -60 Level Washington Center
04:25PM 38.2894 -75.3219 25° Northeast 442 509 36,900 -60 Descending Washington Center
04:26PM 38.4144 -75.2392 27° Northeast 442 509 36,900  Level Washington Center
04:27PM 38.5269 -75.1725 25° Northeast 442 509 36,900  Level Washington Center
04:28PM 38.6369 -75.0972 28° Northeast 442 509 37,000  Climbing Washington Center
04:29PM 38.7492 -75.0272 26° Northeast 442 509 37,000 -60 Level Washington Center
04:30PM 38.8572 -74.9492 29° Northeast 442 509 36,900 -360 Descending Washington Center
04:31PM 38.9694 -74.8867 23° Northeast 442 509 36,300 -1,980 Descending Washington Center
04:32PM 39.0794 -74.8081 29° Northeast 442 509 33,100 -3,480 Descending Washington Center
04:33PM 39.1808 -74.7106 37° Northeast 442 509 29,300 -3,300 Descending Washington Center
04:34PM 39.2781 -74.6050 40° Northeast 453 521 26,500 -2,580 Descending Washington Center
04:36PM 39.4764 -74.3911 40° Northeast 439 505 20,900 -2,580 Descending New York Center
04:37PM 39.5714 -74.2853 41° Northeast 411 473 18,300 -1,560 Descending New York Center
04:38PM 39.6597 -74.1928 39° Northeast 405 466 17,900 -720 Descending New York Center
04:39PM 39.7308 -74.1072 43° Northeast 394 453 16,900 -1,440 Descending New York Center
04:40PM 39.8103 -74.0217 40° Northeast 380 437 15,000 -2,040 Descending New York Center
04:41PM 39.9019 -73.9503 31° Northeast 351 404 12,900 -1,980 Descending New York Center
04:42PM 39.9808 -73.8861 32° Northeast 336 387 11,200 -960 Descending New York Center
04:43PM 40.0531 -73.8297 31° Northeast 323 372 11,000 -720 Descending New York Center
04:44PM 40.1214 -73.7703 34° Northeast 298 343 9,800 -1,380 Descending New York Center
04:44PM 40.1667 -73.7500 19° North 278 320 8,800 -1,680 Descending New York TRACON
04:45PM 40.2333 -73.7667 349° North 274 315 7,100 -1,680 Descending New York TRACON
04:46PM 40.2833 -73.8000 333° Northwest 257 296 5,500 -1,860 Descending New York TRACON
04:47PM 40.3500 -73.7333 37° Northeast 276 318 3,400 -1,800 Descending New York TRACON
04:48PM 40.3833 -73.6500 62° Northeast 268 308 2,000 -720 Descending New York TRACON
04:49PM 40.4500 -73.6167 21° North 259 298 2,000  Level New York TRACON
04:50PM 40.5000 -73.6333 346° North 196 226 2,000  Level New York TRACON